createdAt,value
2022-10-11T00:07:26.460Z,23.90
2022-10-11T00:22:27.918Z,23.90
2022-10-11T00:37:29.371Z,23.80
2022-10-11T00:52:30.833Z,23.80
2022-10-11T01:07:32.277Z,23.80
2022-10-11T01:22:33.739Z,23.70
2022-10-11T01:37:35.193Z,23.70
2022-10-11T01:52:36.659Z,23.70
2022-10-11T02:07:38.170Z,23.60
2022-10-11T02:22:39.622Z,23.60
2022-10-11T02:37:41.090Z,23.60
2022-10-11T02:52:42.567Z,23.50
2022-10-11T03:07:44.039Z,23.50
2022-10-11T03:22:45.492Z,23.50
2022-10-11T03:37:46.964Z,23.40
2022-10-11T03:52:48.427Z,23.40
2022-10-11T04:07:49.895Z,23.40
2022-10-11T04:22:51.359Z,23.40
2022-10-11T04:37:52.843Z,23.30
2022-10-11T04:52:54.291Z,23.30
2022-10-11T05:07:55.746Z,23.30
2022-10-11T05:22:57.207Z,23.30
2022-10-11T05:37:58.667Z,23.20
2022-10-11T05:53:00.121Z,23.20
2022-10-11T06:08:01.575Z,23.20
2022-10-11T06:23:03.036Z,23.10
2022-10-11T06:38:04.526Z,23.10
2022-10-11T06:53:05.985Z,23.20
2022-10-11T07:08:07.461Z,23.30
2022-10-11T07:23:08.917Z,23.60
2022-10-11T07:38:10.359Z,24.20
2022-10-11T07:53:11.818Z,24.80
2022-10-11T08:08:13.284Z,24.70
2022-10-11T08:23:14.741Z,24.40
2022-10-11T08:38:16.221Z,24.30
2022-10-11T08:53:17.680Z,24.30
2022-10-11T09:08:19.183Z,24.30
2022-10-11T09:23:20.643Z,24.50
2022-10-11T09:38:22.102Z,24.60
2022-10-11T09:53:23.544Z,24.80
2022-10-11T10:08:24.997Z,25.00
2022-10-11T10:23:26.463Z,25.10
2022-10-11T10:38:28.007Z,25.30
2022-10-11T10:53:29.474Z,25.50
2022-10-11T11:08:30.921Z,26.40
2022-10-11T11:23:32.423Z,27.40
2022-10-11T11:38:33.895Z,28.20
2022-10-11T11:53:35.376Z,28.60
2022-10-11T12:08:36.837Z,28.90
2022-10-11T12:23:38.286Z,29.60
2022-10-11T12:38:39.782Z,30.00
2022-10-11T12:53:41.262Z,30.20
2022-10-11T13:08:42.786Z,29.70
2022-10-11T13:23:44.253Z,29.20
2022-10-11T13:38:45.712Z,29.20
2022-10-11T13:53:47.186Z,28.90
2022-10-11T14:08:48.662Z,28.70
2022-10-11T14:23:50.123Z,28.50
2022-10-11T14:38:51.583Z,28.20
2022-10-11T14:53:53.039Z,27.90
2022-10-11T15:08:54.489Z,27.60
2022-10-11T15:23:55.966Z,27.40
2022-10-11T15:38:57.425Z,27.20
2022-10-11T15:53:58.883Z,27.10
2022-10-11T16:09:00.354Z,26.90
2022-10-11T16:24:01.819Z,26.80
2022-10-11T16:39:03.270Z,26.80
2022-10-11T16:54:04.733Z,26.60
2022-10-11T17:09:06.198Z,26.40
2022-10-11T17:24:07.661Z,26.10
2022-10-11T17:39:09.126Z,26.00
2022-10-11T17:54:10.562Z,25.70
2022-10-11T18:09:12.028Z,25.50
2022-10-11T18:24:13.479Z,25.40
2022-10-11T18:39:14.937Z,25.30
2022-10-11T18:54:20.070Z,25.20
2022-10-11T19:09:22.675Z,25.20
2022-10-11T19:24:24.133Z,25.10
2022-10-11T19:39:25.611Z,25.00
2022-10-11T19:54:28.189Z,25.00
2022-10-11T20:09:30.855Z,24.90
2022-10-11T20:24:33.357Z,24.80
2022-10-11T20:39:35.401Z,24.80
2022-10-11T20:54:36.850Z,24.70
2022-10-11T21:09:38.294Z,24.60
2022-10-11T21:24:39.740Z,24.50
2022-10-11T21:39:41.190Z,24.50
2022-10-11T21:54:42.645Z,24.40
2022-10-11T22:09:44.081Z,24.40
2022-10-11T22:24:45.593Z,24.30
2022-10-11T22:39:47.029Z,24.20
2022-10-11T22:54:48.496Z,24.20
2022-10-11T23:09:49.984Z,24.10
2022-10-11T23:24:51.422Z,24.10
2022-10-11T23:39:52.871Z,24.10
2022-10-11T23:54:54.327Z,24.00
